sensor_id;sensor_type;location;lat;lon;timestamp;P1;durP1;ratioP1;P2;durP2;ratioP2
24729;SDS011;12832;52.392;13.066;2023-02-01T00:01:45;1.02;;;0.50;;
24729;SDS011;12832;52.392;13.066;2023-02-01T00:04:11;0.50;;;0.40;;
24729;SDS011;12832;52.392;13.066;2023-02-01T00:06:37;0.88;;;0.63;;
24729;SDS011;12832;52.392;13.066;2023-02-01T00:09:03;0.50;;;0.47;;
24729;SDS011;12832;52.392;13.066;2023-02-01T00:11:29;0.50;;;0.50;;
24729;SDS011;12832;52.392;13.066;2023-02-01T00:13:56;0.73;;;0.50;;
24729;SDS011;12832;52.392;13.066;2023-02-01T00:16:24;1.02;;;0.68;;
24729;SDS011;12832;52.392;13.066;2023-02-01T00:18:56;0.47;;;0.47;;
24729;SDS011;12832;52.392;13.066;2023-02-01T00:21:24;0.68;;;0.40;;
24729;SDS011;12832;52.392;13.066;2023-02-01T00:23:51;0.50;;;0.50;;
24729;SDS011;12832;52.392;13.066;2023-02-01T00:26:18;0.82;;;0.60;;
24729;SDS011;12832;52.392;13.066;2023-02-01T00:28:47;0.43;;;0.43;;
24729;SDS011;12832;52.392;13.066;2023-02-01T00:31:13;0.55;;;0.47;;
24729;SDS011;12832;52.392;13.066;2023-02-01T00:33:40;1.08;;;0.70;;
24729;SDS011;12832;52.392;13.066;2023-02-01T00:36:07;1.60;;;0.55;;
24729;SDS011;12832;52.392;13.066;2023-02-01T00:38:34;1.10;;;0.60;;
24729;SDS011;12832;52.392;13.066;2023-02-01T00:41:06;0.68;;;0.50;;
24729;SDS011;12832;52.392;13.066;2023-02-01T00:43:37;0.50;;;0.50;;
24729;SDS011;12832;52.392;13.066;2023-02-01T00:46:04;0.73;;;0.50;;
24729;SDS011;12832;52.392;13.066;2023-02-01T00:48:30;0.55;;;0.40;;
24729;SDS011;12832;52.392;13.066;2023-02-01T00:50:59;0.70;;;0.60;;
24729;SDS011;12832;52.392;13.066;2023-02-01T00:53:30;0.75;;;0.50;;
24729;SDS011;12832;52.392;13.066;2023-02-01T00:55:56;0.50;;;0.45;;
24729;SDS011;12832;52.392;13.066;2023-02-01T00:58:23;0.57;;;0.57;;
24729;SDS011;12832;52.392;13.066;2023-02-01T01:01:07;0.70;;;0.50;;
24729;SDS011;12832;52.392;13.066;2023-02-01T01:03:38;0.60;;;0.50;;
24729;SDS011;12832;52.392;13.066;2023-02-01T01:06:07;0.40;;;0.40;;
24729;SDS011;12832;52.392;13.066;2023-02-01T01:08:38;0.60;;;0.50;;
24729;SDS011;12832;52.392;13.066;2023-02-01T01:11:06;0.88;;;0.50;;
24729;SDS011;12832;52.392;13.066;2023-02-01T01:13:43;0.65;;;0.47;;
24729;SDS011;12832;52.392;13.066;2023-02-01T01:16:11;0.70;;;0.57;;
24729;SDS011;12832;52.392;13.066;2023-02-01T01:18:37;0.65;;;0.55;;
24729;SDS011;12832;52.392;13.066;2023-02-01T01:21:04;0.70;;;0.52;;
24729;SDS011;12832;52.392;13.066;2023-02-01T01:23:31;0.73;;;0.55;;
24729;SDS011;12832;52.392;13.066;2023-02-01T01:25:57;0.60;;;0.50;;
24729;SDS011;12832;52.392;13.066;2023-02-01T01:28:23;0.75;;;0.50;;
24729;SDS011;12832;52.392;13.066;2023-02-01T01:30:49;1.48;;;0.70;;
24729;SDS011;12832;52.392;13.066;2023-02-01T01:33:15;1.00;;;0.70;;
24729;SDS011;12832;52.392;13.066;2023-02-01T01:35:42;1.15;;;0.60;;
24729;SDS011;12832;52.392;13.066;2023-02-01T01:38:09;0.70;;;0.50;;
24729;SDS011;12832;52.392;13.066;2023-02-01T01:40:37;0.63;;;0.40;;
24729;SDS011;12832;52.392;13.066;2023-02-01T01:43:05;0.60;;;0.50;;
24729;SDS011;12832;52.392;13.066;2023-02-01T01:45:39;0.80;;;0.45;;
24729;SDS011;12832;52.392;13.066;2023-02-01T01:48:17;0.85;;;0.70;;
24729;SDS011;12832;52.392;13.066;2023-02-01T01:50:50;0.50;;;0.50;;
24729;SDS011;12832;52.392;13.066;2023-02-01T01:53:26;0.70;;;0.50;;
24729;SDS011;12832;52.392;13.066;2023-02-01T01:55:56;0.90;;;0.65;;
24729;SDS011;12832;52.392;13.066;2023-02-01T01:58:25;0.98;;;0.70;;
24729;SDS011;12832;52.392;13.066;2023-02-01T02:00:53;0.75;;;0.40;;
24729;SDS011;12832;52.392;13.066;2023-02-01T02:06:00;0.70;;;0.50;;
24729;SDS011;12832;52.392;13.066;2023-02-01T02:08:29;0.90;;;0.60;;
24729;SDS011;12832;52.392;13.066;2023-02-01T02:10:55;0.63;;;0.40;;
24729;SDS011;12832;52.392;13.066;2023-02-01T02:13:31;1.08;;;0.60;;
24729;SDS011;12832;52.392;13.066;2023-02-01T02:16:11;1.27;;;0.70;;
24729;SDS011;12832;52.392;13.066;2023-02-01T02:27:12;1.15;;;0.60;;
24729;SDS011;12832;52.392;13.066;2023-02-01T02:36:31;0.55;;;0.55;;
24729;SDS011;12832;52.392;13.066;2023-02-01T02:47:43;0.57;;;0.55;;
24729;SDS011;12832;52.392;13.066;2023-02-01T02:50:18;1.27;;;0.70;;
24729;SDS011;12832;52.392;13.066;2023-02-01T02:53:14;0.82;;;0.50;;
24729;SDS011;12832;52.392;13.066;2023-02-01T02:56:07;1.45;;;0.80;;
24729;SDS011;12832;52.392;13.066;2023-02-01T02:58:54;1.45;;;0.77;;
24729;SDS011;12832;52.392;13.066;2023-02-01T03:01:39;1.25;;;0.60;;
24729;SDS011;12832;52.392;13.066;2023-02-01T03:04:24;0.80;;;0.70;;
24729;SDS011;12832;52.392;13.066;2023-02-01T03:06:51;0.85;;;0.63;;
24729;SDS011;12832;52.392;13.066;2023-02-01T03:09:21;0.77;;;0.55;;
24729;SDS011;12832;52.392;13.066;2023-02-01T03:11:53;1.60;;;0.68;;
24729;SDS011;12832;52.392;13.066;2023-02-01T03:14:43;1.30;;;0.93;;
24729;SDS011;12832;52.392;13.066;2023-02-01T03:17:15;1.15;;;0.47;;
24729;SDS011;12832;52.392;13.066;2023-02-01T03:19:47;0.95;;;0.70;;
24729;SDS011;12832;52.392;13.066;2023-02-01T03:22:17;0.88;;;0.60;;
24729;SDS011;12832;52.392;13.066;2023-02-01T03:24:51;0.80;;;0.70;;
24729;SDS011;12832;52.392;13.066;2023-02-01T03:27:27;0.80;;;0.57;;
24729;SDS011;12832;52.392;13.066;2023-02-01T03:30:08;0.65;;;0.50;;
24729;SDS011;12832;52.392;13.066;2023-02-01T03:32:39;0.82;;;0.70;;
24729;SDS011;12832;52.392;13.066;2023-02-01T03:41:16;1.02;;;0.80;;
24729;SDS011;12832;52.392;13.066;2023-02-01T03:43:50;1.67;;;0.90;;
24729;SDS011;12832;52.392;13.066;2023-02-01T03:46:37;0.50;;;0.50;;
24729;SDS011;12832;52.392;13.066;2023-02-01T03:49:12;0.73;;;0.60;;
24729;SDS011;12832;52.392;13.066;2023-02-01T03:51:41;0.60;;;0.50;;
24729;SDS011;12832;52.392;13.066;2023-02-01T03:54:10;1.00;;;0.60;;
24729;SDS011;12832;52.392;13.066;2023-02-01T03:56:41;1.27;;;0.68;;
24729;SDS011;12832;52.392;13.066;2023-02-01T03:59:10;1.27;;;0.80;;
24729;SDS011;12832;52.392;13.066;2023-02-01T04:01:36;1.08;;;0.60;;
24729;SDS011;12832;52.392;13.066;2023-02-01T04:04:03;1.00;;;0.68;;
24729;SDS011;12832;52.392;13.066;2023-02-01T04:06:29;0.63;;;0.60;;
24729;SDS011;12832;52.392;13.066;2023-02-01T04:08:55;1.25;;;0.77;;
24729;SDS011;12832;52.392;13.066;2023-02-01T04:11:21;1.77;;;0.90;;
24729;SDS011;12832;52.392;13.066;2023-02-01T04:13:47;0.98;;;0.55;;
24729;SDS011;12832;52.392;13.066;2023-02-01T04:16:14;0.90;;;0.65;;
24729;SDS011;12832;52.392;13.066;2023-02-01T04:18:40;0.80;;;0.70;;
24729;SDS011;12832;52.392;13.066;2023-02-01T04:21:06;1.17;;;0.77;;
24729;SDS011;12832;52.392;13.066;2023-02-01T04:23:32;1.13;;;0.70;;
24729;SDS011;12832;52.392;13.066;2023-02-01T04:25:59;0.60;;;0.50;;
24729;SDS011;12832;52.392;13.066;2023-02-01T04:28:29;0.70;;;0.60;;
24729;SDS011;12832;52.392;13.066;2023-02-01T04:30:55;0.50;;;0.50;;
24729;SDS011;12832;52.392;13.066;2023-02-01T04:33:22;1.05;;;0.52;;
24729;SDS011;12832;52.392;13.066;2023-02-01T04:35:48;0.65;;;0.60;;
24729;SDS011;12832;52.392;13.066;2023-02-01T04:38:14;1.20;;;0.60;;
24729;SDS011;12832;52.392;13.066;2023-02-01T04:40:40;0.60;;;0.50;;
24729;SDS011;12832;52.392;13.066;2023-02-01T04:43:06;0.60;;;0.50;;
24729;SDS011;12832;52.392;13.066;2023-02-01T04:45:33;0.95;;;0.73;;
24729;SDS011;12832;52.392;13.066;2023-02-01T04:47:59;0.88;;;0.60;;
24729;SDS011;12832;52.392;13.066;2023-02-01T04:50:25;0.63;;;0.57;;
24729;SDS011;12832;52.392;13.066;2023-02-01T04:52:51;1.20;;;0.60;;
24729;SDS011;12832;52.392;13.066;2023-02-01T04:55:17;0.73;;;0.50;;
24729;SDS011;12832;52.392;13.066;2023-02-01T04:57:43;0.93;;;0.60;;
24729;SDS011;12832;52.392;13.066;2023-02-01T05:00:10;0.85;;;0.57;;
24729;SDS011;12832;52.392;13.066;2023-02-01T05:02:36;0.82;;;0.73;;
24729;SDS011;12832;52.392;13.066;2023-02-01T05:05:03;0.70;;;0.57;;
24729;SDS011;12832;52.392;13.066;2023-02-01T05:07:29;0.93;;;0.60;;
24729;SDS011;12832;52.392;13.066;2023-02-01T05:09:55;1.02;;;0.60;;
24729;SDS011;12832;52.392;13.066;2023-02-01T05:12:21;0.95;;;0.60;;
24729;SDS011;12832;52.392;13.066;2023-02-01T05:15:06;0.60;;;0.45;;
24729;SDS011;12832;52.392;13.066;2023-02-01T05:17:32;0.45;;;0.40;;
24729;SDS011;12832;52.392;13.066;2023-02-01T05:19:59;1.15;;;0.88;;
24729;SDS011;12832;52.392;13.066;2023-02-01T05:22:25;0.63;;;0.50;;
24729;SDS011;12832;52.392;13.066;2023-02-01T05:24:51;1.10;;;0.60;;
24729;SDS011;12832;52.392;13.066;2023-02-01T05:27:17;0.50;;;0.50;;
24729;SDS011;12832;52.392;13.066;2023-02-01T05:29:43;0.75;;;0.43;;
24729;SDS011;12832;52.392;13.066;2023-02-01T05:32:09;2.08;;;0.70;;
24729;SDS011;12832;52.392;13.066;2023-02-01T05:34:47;0.50;;;0.50;;
24729;SDS011;12832;52.392;13.066;2023-02-01T05:37:13;0.90;;;0.60;;
24729;SDS011;12832;52.392;13.066;2023-02-01T05:39:39;0.88;;;0.60;;
24729;SDS011;12832;52.392;13.066;2023-02-01T05:42:05;0.88;;;0.57;;
24729;SDS011;12832;52.392;13.066;2023-02-01T05:44:31;0.95;;;0.50;;
24729;SDS011;12832;52.392;13.066;2023-02-01T05:46:57;0.38;;;0.30;;
24729;SDS011;12832;52.392;13.066;2023-02-01T05:49:26;0.57;;;0.50;;
24729;SDS011;12832;52.392;13.066;2023-02-01T05:51:52;0.35;;;0.35;;
24729;SDS011;12832;52.392;13.066;2023-02-01T05:54:18;1.00;;;0.57;;
24729;SDS011;12832;52.392;13.066;2023-02-01T05:56:46;0.70;;;0.50;;
24729;SDS011;12832;52.392;13.066;2023-02-01T05:59:12;0.60;;;0.40;;
24729;SDS011;12832;52.392;13.066;2023-02-01T06:01:38;0.52;;;0.50;;
24729;SDS011;12832;52.392;13.066;2023-02-01T06:04:05;0.70;;;0.47;;
24729;SDS011;12832;52.392;13.066;2023-02-01T06:06:31;0.88;;;0.50;;
24729;SDS011;12832;52.392;13.066;2023-02-01T06:08:57;0.85;;;0.35;;
24729;SDS011;12832;52.392;13.066;2023-02-01T06:11:23;1.23;;;0.73;;
24729;SDS011;12832;52.392;13.066;2023-02-01T06:13:58;1.95;;;0.73;;
24729;SDS011;12832;52.392;13.066;2023-02-01T06:16:24;1.52;;;0.70;;
24729;SDS011;12832;52.392;13.066;2023-02-01T06:18:50;2.63;;;0.80;;
24729;SDS011;12832;52.392;13.066;2023-02-01T06:21:17;2.78;;;0.85;;
24729;SDS011;12832;52.392;13.066;2023-02-01T06:23:50;0.98;;;0.70;;
24729;SDS011;12832;52.392;13.066;2023-02-01T06:26:17;1.20;;;0.73;;
24729;SDS011;12832;52.392;13.066;2023-02-01T06:28:44;0.80;;;0.55;;
24729;SDS011;12832;52.392;13.066;2023-02-01T06:31:10;1.23;;;0.70;;
24729;SDS011;12832;52.392;13.066;2023-02-01T06:33:37;1.48;;;0.85;;
24729;SDS011;12832;52.392;13.066;2023-02-01T06:36:05;1.17;;;0.90;;
24729;SDS011;12832;52.392;13.066;2023-02-01T06:38:32;2.53;;;0.88;;
24729;SDS011;12832;52.392;13.066;2023-02-01T06:41:02;2.47;;;1.10;;
24729;SDS011;12832;52.392;13.066;2023-02-01T06:43:29;1.88;;;1.15;;
24729;SDS011;12832;52.392;13.066;2023-02-01T06:46:02;2.38;;;1.27;;
24729;SDS011;12832;52.392;13.066;2023-02-01T06:48:31;2.75;;;1.35;;
24729;SDS011;12832;52.392;13.066;2023-02-01T06:50:58;4.50;;;1.58;;
24729;SDS011;12832;52.392;13.066;2023-02-01T06:53:24;2.50;;;1.33;;
24729;SDS011;12832;52.392;13.066;2023-02-01T06:55:54;3.40;;;1.50;;
24729;SDS011;12832;52.392;13.066;2023-02-01T06:58:22;4.00;;;1.52;;
24729;SDS011;12832;52.392;13.066;2023-02-01T07:00:48;3.40;;;1.27;;
24729;SDS011;12832;52.392;13.066;2023-02-01T07:03:15;2.70;;;1.25;;
24729;SDS011;12832;52.392;13.066;2023-02-01T07:05:42;3.65;;;1.55;;
24729;SDS011;12832;52.392;13.066;2023-02-01T07:08:08;2.25;;;1.08;;
24729;SDS011;12832;52.392;13.066;2023-02-01T07:10:34;2.53;;;1.17;;
24729;SDS011;12832;52.392;13.066;2023-02-01T07:13:00;1.67;;;0.98;;
24729;SDS011;12832;52.392;13.066;2023-02-01T07:15:26;4.35;;;1.35;;
24729;SDS011;12832;52.392;13.066;2023-02-01T07:17:55;2.13;;;1.15;;
24729;SDS011;12832;52.392;13.066;2023-02-01T07:20:22;3.22;;;1.70;;
24729;SDS011;12832;52.392;13.066;2023-02-01T07:22:54;6.93;;;2.20;;
24729;SDS011;12832;52.392;13.066;2023-02-01T07:25:20;4.80;;;1.90;;
24729;SDS011;12832;52.392;13.066;2023-02-01T07:27:47;4.18;;;1.90;;
24729;SDS011;12832;52.392;13.066;2023-02-01T07:30:13;4.68;;;1.58;;
24729;SDS011;12832;52.392;13.066;2023-02-01T07:32:40;4.75;;;1.75;;
24729;SDS011;12832;52.392;13.066;2023-02-01T07:35:06;3.30;;;1.20;;
24729;SDS011;12832;52.392;13.066;2023-02-01T07:37:33;4.15;;;2.00;;
24729;SDS011;12832;52.392;13.066;2023-02-01T07:39:59;2.95;;;1.50;;
24729;SDS011;12832;52.392;13.066;2023-02-01T07:42:25;2.88;;;1.50;;
24729;SDS011;12832;52.392;13.066;2023-02-01T07:44:51;3.08;;;1.33;;
24729;SDS011;12832;52.392;13.066;2023-02-01T07:47:17;4.25;;;1.67;;
24729;SDS011;12832;52.392;13.066;2023-02-01T07:49:43;2.95;;;1.50;;
24729;SDS011;12832;52.392;13.066;2023-02-01T07:52:09;3.67;;;1.80;;
24729;SDS011;12832;52.392;13.066;2023-02-01T07:54:36;3.70;;;1.70;;
24729;SDS011;12832;52.392;13.066;2023-02-01T07:57:02;3.33;;;1.65;;
24729;SDS011;12832;52.392;13.066;2023-02-01T07:59:28;2.70;;;1.58;;
24729;SDS011;12832;52.392;13.066;2023-02-01T08:01:55;5.68;;;1.83;;
24729;SDS011;12832;52.392;13.066;2023-02-01T08:04:22;3.00;;;1.52;;
24729;SDS011;12832;52.392;13.066;2023-02-01T08:06:48;4.38;;;1.77;;
24729;SDS011;12832;52.392;13.066;2023-02-01T08:09:14;3.15;;;1.55;;
24729;SDS011;12832;52.392;13.066;2023-02-01T08:11:40;4.10;;;1.60;;
24729;SDS011;12832;52.392;13.066;2023-02-01T08:14:06;3.42;;;1.70;;
24729;SDS011;12832;52.392;13.066;2023-02-01T08:16:33;4.30;;;1.67;;
24729;SDS011;12832;52.392;13.066;2023-02-01T08:19:00;3.47;;;1.63;;
24729;SDS011;12832;52.392;13.066;2023-02-01T08:21:27;3.45;;;1.50;;
24729;SDS011;12832;52.392;13.066;2023-02-01T08:24:05;2.80;;;1.27;;
24729;SDS011;12832;52.392;13.066;2023-02-01T08:26:32;3.72;;;1.33;;
24729;SDS011;12832;52.392;13.066;2023-02-01T08:28:59;2.35;;;1.50;;
24729;SDS011;12832;52.392;13.066;2023-02-01T08:31:27;4.00;;;1.77;;
24729;SDS011;12832;52.392;13.066;2023-02-01T08:33:55;3.60;;;1.50;;
24729;SDS011;12832;52.392;13.066;2023-02-01T08:36:24;2.03;;;1.40;;
24729;SDS011;12832;52.392;13.066;2023-02-01T08:38:52;3.50;;;1.42;;
24729;SDS011;12832;52.392;13.066;2023-02-01T08:41:19;2.33;;;1.50;;
24729;SDS011;12832;52.392;13.066;2023-02-01T08:43:49;2.65;;;1.35;;
24729;SDS011;12832;52.392;13.066;2023-02-01T08:46:16;2.53;;;1.40;;
24729;SDS011;12832;52.392;13.066;2023-02-01T08:48:42;2.45;;;1.20;;
24729;SDS011;12832;52.392;13.066;2023-02-01T08:51:11;1.52;;;0.90;;
24729;SDS011;12832;52.392;13.066;2023-02-01T08:53:38;3.22;;;1.00;;
24729;SDS011;12832;52.392;13.066;2023-02-01T08:56:07;1.95;;;1.00;;
24729;SDS011;12832;52.392;13.066;2023-02-01T08:58:37;2.35;;;1.25;;
24729;SDS011;12832;52.392;13.066;2023-02-01T09:01:08;2.45;;;1.35;;
24729;SDS011;12832;52.392;13.066;2023-02-01T09:03:37;2.08;;;1.00;;
24729;SDS011;12832;52.392;13.066;2023-02-01T09:06:04;1.98;;;0.98;;
24729;SDS011;12832;52.392;13.066;2023-02-01T09:08:32;3.20;;;1.17;;
24729;SDS011;12832;52.392;13.066;2023-02-01T09:11:00;1.98;;;1.15;;
24729;SDS011;12832;52.392;13.066;2023-02-01T09:13:29;1.77;;;1.10;;
24729;SDS011;12832;52.392;13.066;2023-02-01T09:15:55;2.13;;;0.90;;
24729;SDS011;12832;52.392;13.066;2023-02-01T09:18:22;1.80;;;0.95;;
24729;SDS011;12832;52.392;13.066;2023-02-01T09:20:48;1.65;;;0.80;;
24729;SDS011;12832;52.392;13.066;2023-02-01T09:23:14;1.52;;;0.80;;
24729;SDS011;12832;52.392;13.066;2023-02-01T09:25:40;1.67;;;0.73;;
24729;SDS011;12832;52.392;13.066;2023-02-01T09:28:06;2.15;;;1.05;;
24729;SDS011;12832;52.392;13.066;2023-02-01T09:30:35;1.63;;;0.70;;
24729;SDS011;12832;52.392;13.066;2023-02-01T09:33:02;2.58;;;0.90;;
24729;SDS011;12832;52.392;13.066;2023-02-01T09:35:29;2.00;;;0.80;;
24729;SDS011;12832;52.392;13.066;2023-02-01T09:37:55;0.95;;;0.70;;
24729;SDS011;12832;52.392;13.066;2023-02-01T09:40:22;1.80;;;0.95;;
24729;SDS011;12832;52.392;13.066;2023-02-01T09:45:28;1.23;;;0.80;;
24729;SDS011;12832;52.392;13.066;2023-02-01T09:48:04;0.77;;;0.60;;
24729;SDS011;12832;52.392;13.066;2023-02-01T09:50:50;1.58;;;0.90;;
24729;SDS011;12832;52.392;13.066;2023-02-01T09:53:37;1.40;;;0.73;;
24729;SDS011;12832;52.392;13.066;2023-02-01T09:58:44;1.13;;;0.60;;
24729;SDS011;12832;52.392;13.066;2023-02-01T10:01:18;0.82;;;0.40;;
24729;SDS011;12832;52.392;13.066;2023-02-01T10:03:47;1.40;;;0.82;;
24729;SDS011;12832;52.392;13.066;2023-02-01T10:06:36;0.65;;;0.50;;
24729;SDS011;12832;52.392;13.066;2023-02-01T10:09:16;1.77;;;0.85;;
24729;SDS011;12832;52.392;13.066;2023-02-01T10:14:44;1.23;;;0.60;;
24729;SDS011;12832;52.392;13.066;2023-02-01T10:23:16;1.27;;;0.60;;
24729;SDS011;12832;52.392;13.066;2023-02-01T10:26:16;2.03;;;0.57;;
24729;SDS011;12832;52.392;13.066;2023-02-01T10:28:44;0.90;;;0.45;;
24729;SDS011;12832;52.392;13.066;2023-02-01T10:31:14;1.02;;;0.57;;
24729;SDS011;12832;52.392;13.066;2023-02-01T10:33:44;1.48;;;0.68;;
24729;SDS011;12832;52.392;13.066;2023-02-01T10:36:15;1.33;;;0.82;;
24729;SDS011;12832;52.392;13.066;2023-02-01T10:38:42;1.50;;;0.50;;
24729;SDS011;12832;52.392;13.066;2023-02-01T10:41:12;2.53;;;0.60;;
24729;SDS011;12832;52.392;13.066;2023-02-01T10:43:45;1.73;;;0.50;;
24729;SDS011;12832;52.392;13.066;2023-02-01T10:46:13;0.93;;;0.60;;
24729;SDS011;12832;52.392;13.066;2023-02-01T10:48:39;1.15;;;0.60;;
24729;SDS011;12832;52.392;13.066;2023-02-01T10:51:13;1.80;;;0.80;;
24729;SDS011;12832;52.392;13.066;2023-02-01T10:53:49;1.30;;;0.80;;
24729;SDS011;12832;52.392;13.066;2023-02-01T10:56:29;1.52;;;0.98;;
24729;SDS011;12832;52.392;13.066;2023-02-01T10:59:00;1.83;;;0.60;;
24729;SDS011;12832;52.392;13.066;2023-02-01T11:01:30;1.83;;;0.60;;
24729;SDS011;12832;52.392;13.066;2023-02-01T11:04:00;1.88;;;0.70;;
24729;SDS011;12832;52.392;13.066;2023-02-01T11:06:35;1.00;;;0.73;;
24729;SDS011;12832;52.392;13.066;2023-02-01T11:09:20;1.33;;;0.82;;
24729;SDS011;12832;52.392;13.066;2023-02-01T11:14:18;2.53;;;0.70;;
24729;SDS011;12832;52.392;13.066;2023-02-01T11:17:01;1.65;;;0.88;;
24729;SDS011;12832;52.392;13.066;2023-02-01T11:19:45;1.40;;;0.82;;
24729;SDS011;12832;52.392;13.066;2023-02-01T11:22:12;2.58;;;0.60;;
24729;SDS011;12832;52.392;13.066;2023-02-01T11:24:39;1.92;;;0.90;;
24729;SDS011;12832;52.392;13.066;2023-02-01T11:27:17;2.08;;;1.00;;
24729;SDS011;12832;52.392;13.066;2023-02-01T11:29:55;0.93;;;0.70;;
24729;SDS011;12832;52.392;13.066;2023-02-01T11:32:24;2.53;;;0.90;;
24729;SDS011;12832;52.392;13.066;2023-02-01T11:34:56;2.22;;;0.80;;
24729;SDS011;12832;52.392;13.066;2023-02-01T11:37:30;1.08;;;0.68;;
24729;SDS011;12832;52.392;13.066;2023-02-01T11:40:03;2.40;;;0.80;;
24729;SDS011;12832;52.392;13.066;2023-02-01T11:42:59;1.75;;;0.88;;
24729;SDS011;12832;52.392;13.066;2023-02-01T11:45:32;1.70;;;0.90;;
24729;SDS011;12832;52.392;13.066;2023-02-01T11:48:09;1.38;;;0.70;;
24729;SDS011;12832;52.392;13.066;2023-02-01T11:53:39;1.15;;;0.52;;
24729;SDS011;12832;52.392;13.066;2023-02-01T11:56:35;2.13;;;1.00;;
24729;SDS011;12832;52.392;13.066;2023-02-01T12:01:58;0.70;;;0.40;;
24729;SDS011;12832;52.392;13.066;2023-02-01T12:04:36;1.38;;;0.85;;
24729;SDS011;12832;52.392;13.066;2023-02-01T12:07:36;3.15;;;0.82;;
24729;SDS011;12832;52.392;13.066;2023-02-01T12:13:03;2.22;;;0.80;;
24729;SDS011;12832;52.392;13.066;2023-02-01T12:35:51;2.47;;;1.13;;
24729;SDS011;12832;52.392;13.066;2023-02-01T12:41:37;2.42;;;0.90;;
24729;SDS011;12832;52.392;13.066;2023-02-01T12:44:28;1.98;;;1.02;;
24729;SDS011;12832;52.392;13.066;2023-02-01T12:47:05;1.73;;;0.75;;
24729;SDS011;12832;52.392;13.066;2023-02-01T12:52:32;1.75;;;0.95;;
24729;SDS011;12832;52.392;13.066;2023-02-01T12:57:47;2.20;;;1.00;;
24729;SDS011;12832;52.392;13.066;2023-02-01T13:00:32;2.25;;;0.70;;
24729;SDS011;12832;52.392;13.066;2023-02-01T13:05:52;2.50;;;0.80;;
24729;SDS011;12832;52.392;13.066;2023-02-01T13:08:29;0.68;;;0.50;;
24729;SDS011;12832;52.392;13.066;2023-02-01T13:11:24;1.48;;;0.85;;
24729;SDS011;12832;52.392;13.066;2023-02-01T13:16:42;1.92;;;0.93;;
24729;SDS011;12832;52.392;13.066;2023-02-01T13:21:42;1.23;;;0.80;;
24729;SDS011;12832;52.392;13.066;2023-02-01T13:24:27;1.55;;;0.82;;
24729;SDS011;12832;52.392;13.066;2023-02-01T13:27:04;2.65;;;0.95;;
24729;SDS011;12832;52.392;13.066;2023-02-01T13:29:31;1.52;;;0.98;;
24729;SDS011;12832;52.392;13.066;2023-02-01T13:40:31;2.00;;;1.17;;
24729;SDS011;12832;52.392;13.066;2023-02-01T13:43:25;2.20;;;1.17;;
24729;SDS011;12832;52.392;13.066;2023-02-01T13:45:55;2.17;;;0.90;;
24729;SDS011;12832;52.392;13.066;2023-02-01T13:48:37;2.90;;;1.17;;
24729;SDS011;12832;52.392;13.066;2023-02-01T13:51:07;2.97;;;1.17;;
24729;SDS011;12832;52.392;13.066;2023-02-01T13:53:34;1.83;;;0.93;;
24729;SDS011;12832;52.392;13.066;2023-02-01T13:56:04;2.40;;;1.02;;
24729;SDS011;12832;52.392;13.066;2023-02-01T13:58:40;3.38;;;1.55;;
24729;SDS011;12832;52.392;13.066;2023-02-01T14:03:59;2.53;;;1.05;;
24729;SDS011;12832;52.392;13.066;2023-02-01T14:11:46;1.83;;;0.90;;
24729;SDS011;12832;52.392;13.066;2023-02-01T14:16:43;3.30;;;1.17;;
24729;SDS011;12832;52.392;13.066;2023-02-01T14:19:30;2.08;;;1.13;;
24729;SDS011;12832;52.392;13.066;2023-02-01T14:21:59;3.65;;;1.08;;
24729;SDS011;12832;52.392;13.066;2023-02-01T14:24:49;1.95;;;0.80;;
24729;SDS011;12832;52.392;13.066;2023-02-01T14:27:26;2.33;;;1.00;;
24729;SDS011;12832;52.392;13.066;2023-02-01T14:29:57;3.80;;;1.35;;
24729;SDS011;12832;52.392;13.066;2023-02-01T14:32:38;3.42;;;1.30;;
24729;SDS011;12832;52.392;13.066;2023-02-01T14:35:19;2.45;;;1.25;;
24729;SDS011;12832;52.392;13.066;2023-02-01T14:37:53;2.22;;;1.10;;
24729;SDS011;12832;52.392;13.066;2023-02-01T14:40:26;2.88;;;0.95;;
24729;SDS011;12832;52.392;13.066;2023-02-01T14:42:53;3.30;;;1.48;;
24729;SDS011;12832;52.392;13.066;2023-02-01T14:47:51;2.47;;;1.10;;
24729;SDS011;12832;52.392;13.066;2023-02-01T15:01:18;2.15;;;1.10;;
24729;SDS011;12832;52.392;13.066;2023-02-01T15:03:54;2.65;;;1.00;;
24729;SDS011;12832;52.392;13.066;2023-02-01T15:06:45;1.75;;;1.00;;
24729;SDS011;12832;52.392;13.066;2023-02-01T15:09:16;1.63;;;0.70;;
24729;SDS011;12832;52.392;13.066;2023-02-01T15:12:32;1.45;;;0.80;;
24729;SDS011;12832;52.392;13.066;2023-02-01T15:17:49;1.52;;;0.60;;
24729;SDS011;12832;52.392;13.066;2023-02-01T15:20:28;1.48;;;0.70;;
24729;SDS011;12832;52.392;13.066;2023-02-01T15:22:57;1.50;;;0.80;;
24729;SDS011;12832;52.392;13.066;2023-02-01T15:25:27;1.17;;;0.60;;
24729;SDS011;12832;52.392;13.066;2023-02-01T15:27:57;1.60;;;0.80;;
24729;SDS011;12832;52.392;13.066;2023-02-01T15:30:27;2.10;;;0.90;;
24729;SDS011;12832;52.392;13.066;2023-02-01T15:33:07;1.52;;;0.70;;
24729;SDS011;12832;52.392;13.066;2023-02-01T15:35:41;1.75;;;0.65;;
24729;SDS011;12832;52.392;13.066;2023-02-01T15:38:18;1.85;;;0.70;;
24729;SDS011;12832;52.392;13.066;2023-02-01T15:40:55;1.38;;;0.82;;
24729;SDS011;12832;52.392;13.066;2023-02-01T15:43:25;1.90;;;0.85;;
24729;SDS011;12832;52.392;13.066;2023-02-01T15:45:55;1.20;;;0.80;;
24729;SDS011;12832;52.392;13.066;2023-02-01T15:48:24;1.58;;;0.85;;
24729;SDS011;12832;52.392;13.066;2023-02-01T15:50:54;1.75;;;0.80;;
24729;SDS011;12832;52.392;13.066;2023-02-01T15:53:23;1.52;;;0.98;;
24729;SDS011;12832;52.392;13.066;2023-02-01T15:55:57;1.38;;;0.80;;
24729;SDS011;12832;52.392;13.066;2023-02-01T15:58:26;1.33;;;0.70;;
24729;SDS011;12832;52.392;13.066;2023-02-01T16:01:01;1.10;;;0.80;;
24729;SDS011;12832;52.392;13.066;2023-02-01T16:03:33;1.67;;;0.95;;
24729;SDS011;12832;52.392;13.066;2023-02-01T16:06:04;1.17;;;0.50;;
24729;SDS011;12832;52.392;13.066;2023-02-01T16:08:33;0.95;;;0.60;;
24729;SDS011;12832;52.392;13.066;2023-02-01T16:13:34;1.05;;;0.60;;
24729;SDS011;12832;52.392;13.066;2023-02-01T16:16:01;0.80;;;0.60;;
24729;SDS011;12832;52.392;13.066;2023-02-01T16:18:27;0.85;;;0.50;;
24729;SDS011;12832;52.392;13.066;2023-02-01T16:20:54;0.80;;;0.50;;
24729;SDS011;12832;52.392;13.066;2023-02-01T16:23:20;0.80;;;0.52;;
24729;SDS011;12832;52.392;13.066;2023-02-01T16:25:47;1.48;;;0.70;;
24729;SDS011;12832;52.392;13.066;2023-02-01T16:28:13;1.05;;;0.47;;
24729;SDS011;12832;52.392;13.066;2023-02-01T16:30:39;1.00;;;0.55;;
24729;SDS011;12832;52.392;13.066;2023-02-01T16:33:05;0.52;;;0.40;;
24729;SDS011;12832;52.392;13.066;2023-02-01T16:35:37;0.70;;;0.60;;
24729;SDS011;12832;52.392;13.066;2023-02-01T16:38:13;1.20;;;0.55;;
24729;SDS011;12832;52.392;13.066;2023-02-01T16:40:41;0.20;;;0.20;;
24729;SDS011;12832;52.392;13.066;2023-02-01T16:43:12;1.15;;;0.35;;
24729;SDS011;12832;52.392;13.066;2023-02-01T16:45:43;0.38;;;0.38;;
24729;SDS011;12832;52.392;13.066;2023-02-01T16:48:16;0.50;;;0.40;;
24729;SDS011;12832;52.392;13.066;2023-02-01T16:50:54;0.65;;;0.30;;
24729;SDS011;12832;52.392;13.066;2023-02-01T16:53:27;0.28;;;0.20;;
24729;SDS011;12832;52.392;13.066;2023-02-01T16:55:55;0.35;;;0.30;;
24729;SDS011;12832;52.392;13.066;2023-02-01T16:58:24;0.38;;;0.20;;
24729;SDS011;12832;52.392;13.066;2023-02-01T17:00:51;0.38;;;0.32;;
24729;SDS011;12832;52.392;13.066;2023-02-01T17:03:18;0.20;;;0.20;;
24729;SDS011;12832;52.392;13.066;2023-02-01T17:05:51;0.40;;;0.25;;
24729;SDS011;12832;52.392;13.066;2023-02-01T17:08:27;0.30;;;0.25;;